createdAt,value
2022-10-18T00:00:06.878Z,7.90
2022-10-18T00:02:54.917Z,10.60
2022-10-18T00:05:21.550Z,13.00
2022-10-18T00:07:48.129Z,10.50
2022-10-18T00:10:14.783Z,14.60
2022-10-18T00:12:41.385Z,15.50
2022-10-18T00:15:08.672Z,11.40
2022-10-18T00:17:37.584Z,10.80
2022-10-18T00:20:05.829Z,8.70
2022-10-18T00:22:35.259Z,10.00
2022-10-18T00:25:01.883Z,8.10
2022-10-18T00:27:29.935Z,8.70
2022-10-18T00:29:56.726Z,10.20
2022-10-18T00:32:23.417Z,11.80
2022-10-18T00:34:50.200Z,6.80
2022-10-18T00:37:17.402Z,9.60
2022-10-18T00:39:44.533Z,13.70
2022-10-18T00:42:16.664Z,15.10
2022-10-18T00:44:43.234Z,10.10
2022-10-18T00:47:12.526Z,5.90
2022-10-18T00:49:45.947Z,9.90
2022-10-18T00:52:15.080Z,9.20
2022-10-18T00:54:44.031Z,8.90
2022-10-18T00:57:12.190Z,10.50
2022-10-18T00:59:40.912Z,10.60
2022-10-18T01:02:08.260Z,11.50
2022-10-18T01:04:35.148Z,10.10
2022-10-18T01:07:17.060Z,13.70
2022-10-18T01:09:55.662Z,8.70
2022-10-18T01:12:53.699Z,12.30
2022-10-18T01:15:49.955Z,9.60
2022-10-18T01:18:37.661Z,12.10
2022-10-18T01:21:19.606Z,10.90
2022-10-18T01:23:55.109Z,12.70
2022-10-18T01:26:32.175Z,10.50
2022-10-18T01:29:20.341Z,13.90
2022-10-18T01:31:55.302Z,7.90
2022-10-18T01:34:27.655Z,13.80
2022-10-18T01:36:57.034Z,11.90
2022-10-18T01:39:28.893Z,9.30
2022-10-18T01:41:58.616Z,7.30
2022-10-18T01:44:27.735Z,13.20
2022-10-18T01:46:56.401Z,9.90
2022-10-18T01:49:24.528Z,11.40
2022-10-18T01:51:51.241Z,14.40
2022-10-18T01:54:37.029Z,15.10
2022-10-18T01:57:14.138Z,11.20
2022-10-18T01:59:43.420Z,13.50
2022-10-18T02:02:15.621Z,8.50
2022-10-18T02:04:45.342Z,13.60
2022-10-18T02:08:00.113Z,9.30
2022-10-18T02:10:48.285Z,10.80
2022-10-18T02:13:19.206Z,9.90
2022-10-18T02:15:52.199Z,13.60
2022-10-18T02:18:25.068Z,10.80
2022-10-18T02:20:53.138Z,12.20
2022-10-18T02:23:23.039Z,11.00
2022-10-18T02:25:50.622Z,13.80
2022-10-18T02:28:17.426Z,7.50
2022-10-18T02:31:08.691Z,11.20
2022-10-18T02:33:51.227Z,13.60
2022-10-18T02:36:26.404Z,11.20
2022-10-18T02:38:57.117Z,13.10
2022-10-18T02:41:26.740Z,15.70
2022-10-18T02:43:53.922Z,15.00
2022-10-18T02:46:20.737Z,14.20
2022-10-18T02:48:47.565Z,15.20
2022-10-18T02:51:14.476Z,13.90
2022-10-18T02:53:41.227Z,10.60
2022-10-18T02:56:08.461Z,12.30
2022-10-18T02:58:35.094Z,12.10
2022-10-18T03:01:01.756Z,13.40
2022-10-18T03:03:28.366Z,13.10
2022-10-18T03:05:54.979Z,11.60
2022-10-18T03:08:22.201Z,14.10
2022-10-18T03:10:48.855Z,13.20
2022-10-18T03:13:15.898Z,13.30
2022-10-18T03:15:42.686Z,10.30
2022-10-18T03:18:09.279Z,12.40
2022-10-18T03:20:36.164Z,12.50
2022-10-18T03:23:02.824Z,14.80
2022-10-18T03:25:29.515Z,12.80
2022-10-18T03:27:56.116Z,16.90
2022-10-18T03:30:22.697Z,14.60
2022-10-18T03:32:49.344Z,13.90
2022-10-18T03:35:16.101Z,12.20
2022-10-18T03:37:42.744Z,13.50
2022-10-18T03:40:09.661Z,17.00
2022-10-18T03:42:36.387Z,13.40
2022-10-18T03:45:04.108Z,13.20
2022-10-18T03:47:30.881Z,10.50
2022-10-18T03:49:57.575Z,17.10
2022-10-18T03:52:24.298Z,14.50
2022-10-18T03:54:50.897Z,15.20
2022-10-18T03:57:17.642Z,12.50
2022-10-18T03:59:44.322Z,10.70
2022-10-18T04:02:10.922Z,13.30
2022-10-18T04:04:37.526Z,11.80
2022-10-18T04:07:04.166Z,19.40
2022-10-18T04:09:31.059Z,12.40
2022-10-18T04:11:57.692Z,18.50
2022-10-18T04:14:24.434Z,11.90
2022-10-18T04:16:51.070Z,11.10
2022-10-18T04:19:18.106Z,13.40
2022-10-18T04:21:44.878Z,11.50
2022-10-18T04:24:11.475Z,12.70
2022-10-18T04:26:38.123Z,19.70
2022-10-18T04:29:04.885Z,17.80
2022-10-18T04:31:31.529Z,19.50
2022-10-18T04:33:58.118Z,17.90
2022-10-18T04:36:24.772Z,15.80
2022-10-18T04:38:51.345Z,15.80
2022-10-18T04:41:17.925Z,17.70
2022-10-18T04:46:12.517Z,17.60
2022-10-18T04:48:39.211Z,16.80
2022-10-18T04:51:05.862Z,11.90
2022-10-18T04:53:32.524Z,13.20
2022-10-18T04:55:59.279Z,11.40
2022-10-18T04:58:25.937Z,15.60
2022-10-18T05:00:52.634Z,12.60
2022-10-18T05:03:19.301Z,21.70
2022-10-18T05:06:02.633Z,16.90
2022-10-18T05:11:02.139Z,15.70
2022-10-18T05:13:29.826Z,10.50
2022-10-18T05:15:58.803Z,24.10
2022-10-18T05:18:25.665Z,16.40
2022-10-18T05:20:52.288Z,17.00
2022-10-18T05:23:18.910Z,11.30
2022-10-18T05:25:45.711Z,17.70
2022-10-18T05:28:34.758Z,15.10
2022-10-18T05:31:07.883Z,14.10
2022-10-18T05:33:35.679Z,15.40
2022-10-18T05:36:03.083Z,14.00
2022-10-18T05:38:30.500Z,15.00
2022-10-18T05:40:58.184Z,16.60
2022-10-18T05:43:28.517Z,14.00
2022-10-18T05:45:55.477Z,11.30
2022-10-18T05:48:22.302Z,13.60
2022-10-18T05:50:48.935Z,14.10
2022-10-18T05:53:35.365Z,14.00
2022-10-18T05:56:02.885Z,12.20
2022-10-18T05:58:29.575Z,14.70
2022-10-18T06:01:00.575Z,12.30
2022-10-18T06:03:29.735Z,13.80
2022-10-18T06:06:06.182Z,11.70
2022-10-18T06:08:34.164Z,14.50
2022-10-18T06:11:06.675Z,12.80
2022-10-18T06:13:33.939Z,10.00
2022-10-18T06:16:00.731Z,10.90
2022-10-18T06:18:29.273Z,18.80
2022-10-18T06:20:59.622Z,15.10
2022-10-18T06:23:27.556Z,14.30
2022-10-18T06:25:58.695Z,15.20
2022-10-18T06:28:25.896Z,16.80
2022-10-18T06:30:52.568Z,15.80
2022-10-18T06:33:19.189Z,22.80
2022-10-18T06:36:06.234Z,12.30
2022-10-18T06:38:33.738Z,16.10
2022-10-18T06:41:00.776Z,20.10
2022-10-18T06:43:27.581Z,15.40
2022-10-18T06:45:54.434Z,17.40
2022-10-18T06:48:22.300Z,16.10
2022-10-18T06:50:57.130Z,15.30
2022-10-18T06:53:25.837Z,14.80
2022-10-18T06:55:53.236Z,15.00
2022-10-18T06:58:19.852Z,12.00
2022-10-18T07:00:47.068Z,12.70
2022-10-18T07:03:13.734Z,16.70
2022-10-18T07:05:40.353Z,14.20
2022-10-18T07:08:07.057Z,19.40
2022-10-18T07:10:33.755Z,10.20
2022-10-18T07:13:19.921Z,12.80
2022-10-18T07:15:47.147Z,17.70
2022-10-18T07:18:14.041Z,10.40
2022-10-18T07:20:40.707Z,10.50
2022-10-18T07:23:08.945Z,7.60
2022-10-18T07:25:35.655Z,11.90
2022-10-18T07:28:02.248Z,14.50
2022-10-18T07:30:28.860Z,13.10
2022-10-18T07:32:55.452Z,12.20
2022-10-18T07:35:22.225Z,12.70
2022-10-18T07:37:48.826Z,10.90
2022-10-18T07:40:15.527Z,18.30
2022-10-18T07:42:42.109Z,9.70
2022-10-18T07:45:09.890Z,11.30
2022-10-18T07:47:36.743Z,11.60
2022-10-18T07:50:03.745Z,8.90
2022-10-18T07:52:30.335Z,13.70
2022-10-18T07:54:56.941Z,20.80
2022-10-18T07:57:23.545Z,19.60
2022-10-18T07:59:55.781Z,11.70
2022-10-18T08:02:23.922Z,14.70
2022-10-18T08:04:50.573Z,11.80
2022-10-18T08:07:17.297Z,11.60
2022-10-18T08:09:43.938Z,11.30
2022-10-18T08:12:10.588Z,11.60
2022-10-18T08:14:37.224Z,11.50
2022-10-18T08:17:03.874Z,10.40
2022-10-18T08:19:30.444Z,11.60
2022-10-18T08:21:57.039Z,8.80
2022-10-18T08:24:23.927Z,10.60
2022-10-18T08:26:50.559Z,15.20
2022-10-18T08:29:23.375Z,11.80
2022-10-18T08:31:51.585Z,8.70
2022-10-18T08:34:19.894Z,9.80
2022-10-18T08:36:46.856Z,10.90
2022-10-18T08:39:13.457Z,8.30
2022-10-18T08:41:51.797Z,13.90
2022-10-18T08:44:24.041Z,10.50
2022-10-18T08:46:58.078Z,13.10
2022-10-18T08:49:46.643Z,8.20
2022-10-18T08:52:16.451Z,7.90
2022-10-18T08:54:58.852Z,12.10
2022-10-18T08:57:25.677Z,10.20
2022-10-18T08:59:52.326Z,7.70
2022-10-18T09:02:43.706Z,8.20
2022-10-18T09:05:29.520Z,8.00
2022-10-18T09:07:56.089Z,8.00
2022-10-18T09:10:43.297Z,5.90
2022-10-18T09:13:24.656Z,7.60
2022-10-18T09:15:58.097Z,6.80
2022-10-18T09:20:59.432Z,4.90
2022-10-18T09:23:42.295Z,6.50
2022-10-18T09:26:19.407Z,8.00
2022-10-18T09:29:07.296Z,6.40
2022-10-18T09:31:45.389Z,5.10
2022-10-18T09:34:24.329Z,8.70
2022-10-18T09:36:52.084Z,6.60
2022-10-18T09:39:23.329Z,8.30
2022-10-18T09:41:58.471Z,12.20
2022-10-18T09:44:48.586Z,6.70
2022-10-18T09:47:21.300Z,3.70
2022-10-18T09:49:56.998Z,7.00
2022-10-18T09:52:34.098Z,8.30
2022-10-18T09:55:09.009Z,6.80
2022-10-18T09:57:43.156Z,4.60
2022-10-18T10:00:29.221Z,5.70
2022-10-18T10:02:55.833Z,4.50
2022-10-18T10:05:22.580Z,4.90
2022-10-18T10:07:56.415Z,4.70
2022-10-18T10:10:25.099Z,3.40
2022-10-18T10:13:15.615Z,4.80
2022-10-18T10:16:02.663Z,6.00
2022-10-18T10:18:39.539Z,7.60
2022-10-18T10:21:12.967Z,8.30
2022-10-18T10:23:59.854Z,3.40
2022-10-18T10:26:38.273Z,3.40
2022-10-18T10:29:44.699Z,6.70
2022-10-18T10:32:18.081Z,8.20
2022-10-18T10:34:45.231Z,6.50
2022-10-18T10:37:41.239Z,6.60
2022-10-18T10:40:19.616Z,5.40
2022-10-18T10:43:33.041Z,5.50
2022-10-18T10:46:05.590Z,6.60
2022-10-18T10:48:57.032Z,5.80
2022-10-18T10:51:39.193Z,5.00
2022-10-18T10:54:27.310Z,10.40
2022-10-18T10:56:57.591Z,5.90
2022-10-18T10:59:26.572Z,3.90
2022-10-18T11:02:22.578Z,7.10
2022-10-18T11:04:51.441Z,6.20
2022-10-18T11:07:35.751Z,10.90
2022-10-18T11:10:18.865Z,4.00
2022-10-18T11:12:49.906Z,5.30
2022-10-18T11:15:35.823Z,1.90
2022-10-18T11:18:08.111Z,4.00
2022-10-18T11:20:42.592Z,4.70
2022-10-18T11:23:13.853Z,4.40
2022-10-18T11:25:45.725Z,3.90
2022-10-18T11:28:31.429Z,5.00
2022-10-18T11:30:58.701Z,3.30
2022-10-18T11:34:07.166Z,3.20
2022-10-18T11:36:40.382Z,3.50
2022-10-18T11:39:25.541Z,5.40
2022-10-18T11:42:00.430Z,7.00
2022-10-18T11:44:49.427Z,3.00
2022-10-18T11:47:55.880Z,5.60
2022-10-18T11:50:37.826Z,5.30
2022-10-18T11:53:19.925Z,2.80
2022-10-18T11:56:12.369Z,3.70
2022-10-18T11:59:02.086Z,2.50
2022-10-18T12:01:41.268Z,3.70
2022-10-18T12:04:16.874Z,4.60
2022-10-18T12:06:47.125Z,4.00
2022-10-18T12:09:44.806Z,3.30
2022-10-18T12:12:16.061Z,4.00
2022-10-18T12:14:50.441Z,3.00
2022-10-18T12:17:46.382Z,4.10
2022-10-18T12:20:37.408Z,3.70
2022-10-18T12:23:10.879Z,4.10
2022-10-18T12:25:41.631Z,5.90
2022-10-18T12:28:08.235Z,4.00
2022-10-18T12:30:53.680Z,3.40
2022-10-18T12:33:28.595Z,3.50
2022-10-18T12:36:11.108Z,5.10
2022-10-18T12:38:45.288Z,7.40
2022-10-18T12:41:28.113Z,8.40
2022-10-18T12:44:07.512Z,4.80
2022-10-18T12:46:53.059Z,4.10
2022-10-18T12:49:28.509Z,4.60
2022-10-18T12:52:18.557Z,5.90
2022-10-18T12:55:06.112Z,3.70
2022-10-18T12:57:51.098Z,3.00
2022-10-18T13:00:29.701Z,5.30
2022-10-18T13:03:26.160Z,2.20
2022-10-18T13:05:57.204Z,3.40
2022-10-18T13:08:26.604Z,4.60
2022-10-18T13:11:08.733Z,3.20
2022-10-18T13:14:23.568Z,7.00
2022-10-18T13:17:18.545Z,3.90
2022-10-18T13:20:07.727Z,3.10
2022-10-18T13:23:38.279Z,6.20
2022-10-18T13:29:11.408Z,5.70
2022-10-18T13:31:58.196Z,11.10
2022-10-18T13:34:37.897Z,3.90
2022-10-18T13:37:18.386Z,6.20
2022-10-18T13:39:45.629Z,8.20
2022-10-18T13:42:15.317Z,5.10
2022-10-18T13:44:44.147Z,8.40
2022-10-18T13:47:31.467Z,6.50
2022-10-18T13:50:32.322Z,8.30
2022-10-18T13:53:04.710Z,5.20
2022-10-18T13:56:10.260Z,9.70
2022-10-18T13:59:15.129Z,12.70
2022-10-18T14:02:08.491Z,15.60
2022-10-18T14:04:43.447Z,7.50
2022-10-18T14:07:11.378Z,9.80
2022-10-18T14:09:52.354Z,7.50
2022-10-18T14:12:20.858Z,14.70
2022-10-18T14:15:06.887Z,8.00
2022-10-18T14:17:35.726Z,7.80
2022-10-18T14:20:20.597Z,12.40
2022-10-18T14:23:00.563Z,8.10
2022-10-18T14:25:29.964Z,7.10
2022-10-18T14:28:10.035Z,6.80
2022-10-18T14:30:52.184Z,8.60
2022-10-18T14:33:35.337Z,10.80
2022-10-18T14:36:09.199Z,8.00
2022-10-18T14:38:49.866Z,8.90
2022-10-18T14:41:21.738Z,17.20
2022-10-18T14:43:50.228Z,8.20
2022-10-18T14:46:28.111Z,9.80
2022-10-18T14:49:01.658Z,10.70
2022-10-18T14:51:33.577Z,11.70
2022-10-18T14:54:00.569Z,12.30
2022-10-18T14:56:29.652Z,16.90
2022-10-18T14:58:59.512Z,10.30
2022-10-18T15:01:30.260Z,22.00
2022-10-18T15:03:59.172Z,16.00
2022-10-18T15:06:26.566Z,15.20
2022-10-18T15:08:57.475Z,11.00
2022-10-18T15:11:25.779Z,12.80
2022-10-18T15:13:57.401Z,7.90
2022-10-18T15:16:27.560Z,9.20
2022-10-18T15:19:01.593Z,11.30
2022-10-18T15:21:28.311Z,14.10
2022-10-18T15:24:14.942Z,16.10
2022-10-18T15:26:44.474Z,27.10
2022-10-18T15:29:18.874Z,22.30
2022-10-18T15:31:47.629Z,14.50
2022-10-18T15:34:17.164Z,10.20
2022-10-18T15:36:44.707Z,7.90
2022-10-18T15:39:20.383Z,12.10
2022-10-18T15:41:54.397Z,9.50
2022-10-18T15:44:52.737Z,8.40
2022-10-18T15:47:24.409Z,10.90
2022-10-18T15:49:54.937Z,6.90
2022-10-18T15:52:24.579Z,5.20
2022-10-18T15:54:51.172Z,4.30
2022-10-18T15:57:17.873Z,8.60
2022-10-18T16:00:03.440Z,10.50
2022-10-18T16:02:38.589Z,11.60
2022-10-18T16:05:05.512Z,9.60
2022-10-18T16:07:32.428Z,10.00
2022-10-18T16:09:59.264Z,6.20
2022-10-18T16:12:25.938Z,6.10
2022-10-18T16:14:52.549Z,8.20
2022-10-18T16:17:19.525Z,6.40
2022-10-18T16:19:46.193Z,10.30
2022-10-18T16:24:44.985Z,11.00
2022-10-18T16:27:11.764Z,7.00
2022-10-18T16:29:38.391Z,13.30
2022-10-18T16:32:05.045Z,12.00
2022-10-18T16:34:31.763Z,12.40
2022-10-18T16:36:58.666Z,13.80
2022-10-18T16:39:25.751Z,18.70
2022-10-18T16:41:52.401Z,19.10
2022-10-18T16:44:19.221Z,23.40
2022-10-18T16:46:47.646Z,25.40
2022-10-18T16:49:24.445Z,27.10
2022-10-18T16:51:53.431Z,23.60
2022-10-18T16:54:20.215Z,10.00
2022-10-18T16:56:49.899Z,7.90
2022-10-18T16:59:28.727Z,8.70
2022-10-18T17:01:55.566Z,7.30
2022-10-18T17:04:22.337Z,9.80
2022-10-18T17:06:49.162Z,7.20
2022-10-18T17:09:16.151Z,11.10
2022-10-18T17:11:43.013Z,12.50
2022-10-18T17:14:09.614Z,9.40
2022-10-18T17:16:38.158Z,7.70
2022-10-18T17:19:06.990Z,11.00
2022-10-18T17:21:34.461Z,6.70
2022-10-18T17:24:02.623Z,6.80
2022-10-18T17:26:30.280Z,10.40
2022-10-18T17:29:00.615Z,7.50
2022-10-18T17:31:29.064Z,8.80
2022-10-18T17:33:57.818Z,9.00
2022-10-18T17:36:24.499Z,7.40
2022-10-18T17:38:52.451Z,7.60
2022-10-18T17:41:19.544Z,6.50
2022-10-18T17:43:47.508Z,5.70
2022-10-18T17:46:14.437Z,7.70
2022-10-18T17:48:41.550Z,9.80
2022-10-18T17:51:09.902Z,6.50
2022-10-18T17:53:36.863Z,7.60
2022-10-18T17:56:04.166Z,13.40
2022-10-18T17:58:31.629Z,6.80
2022-10-18T18:01:18.133Z,6.60
2022-10-18T18:03:47.107Z,9.00
2022-10-18T18:06:17.854Z,6.00
2022-10-18T18:08:45.343Z,9.30
2022-10-18T18:11:12.477Z,10.00
2022-10-18T18:13:39.319Z,7.30
2022-10-18T18:16:21.450Z,9.00
2022-10-18T18:18:50.414Z,10.50
2022-10-18T18:21:17.780Z,7.50
2022-10-18T18:23:45.054Z,5.80
2022-10-18T18:26:13.625Z,8.50
2022-10-18T18:28:40.587Z,5.40
2022-10-18T18:31:25.210Z,5.20
2022-10-18T18:33:54.135Z,4.80
2022-10-18T18:36:21.757Z,6.40
2022-10-18T18:38:55.463Z,5.70
2022-10-18T18:41:26.442Z,10.20
2022-10-18T18:44:03.677Z,7.00
2022-10-18T18:46:36.053Z,7.30
2022-10-18T18:49:02.960Z,4.90
2022-10-18T18:51:29.884Z,6.90
2022-10-18T18:53:56.566Z,5.00
2022-10-18T18:56:25.358Z,6.70
2022-10-18T18:58:53.569Z,9.50
2022-10-18T19:01:23.958Z,13.50
2022-10-18T19:03:53.040Z,8.40
2022-10-18T19:06:26.703Z,6.10
2022-10-18T19:08:59.718Z,9.20
2022-10-18T19:11:28.865Z,8.90
2022-10-18T19:13:55.665Z,6.30
2022-10-18T19:16:25.787Z,6.20
2022-10-18T19:18:58.022Z,6.20
2022-10-18T19:21:27.048Z,9.30
2022-10-18T19:23:55.529Z,7.90
2022-10-18T19:26:31.730Z,5.40
2022-10-18T19:29:04.910Z,7.40
2022-10-18T19:31:31.895Z,10.10
2022-10-18T19:33:59.599Z,9.30
2022-10-18T19:36:28.185Z,14.40
2022-10-18T19:38:55.267Z,14.40
2022-10-18T19:41:23.137Z,12.60
2022-10-18T19:43:51.791Z,4.70
2022-10-18T19:46:18.476Z,5.30
2022-10-18T19:48:45.222Z,5.10
2022-10-18T19:51:15.980Z,5.90
2022-10-18T19:53:46.401Z,4.20
2022-10-18T19:56:18.458Z,4.80
2022-10-18T19:58:45.891Z,7.00
2022-10-18T20:01:13.870Z,4.70
2022-10-18T20:03:40.707Z,4.70
2022-10-18T20:06:07.916Z,8.90
2022-10-18T20:08:35.671Z,6.40
2022-10-18T20:11:05.663Z,5.60
2022-10-18T20:13:32.864Z,7.50
2022-10-18T20:15:59.993Z,6.20
2022-10-18T20:18:26.887Z,5.80
2022-10-18T20:20:53.637Z,5.20
2022-10-18T20:23:21.220Z,5.70
2022-10-18T20:25:56.772Z,3.90
2022-10-18T20:28:24.453Z,4.00
2022-10-18T20:31:10.108Z,4.70
2022-10-18T20:33:37.631Z,5.30
2022-10-18T20:36:09.964Z,7.40
2022-10-18T20:38:38.914Z,6.80
2022-10-18T20:41:11.972Z,6.10
2022-10-18T20:43:39.347Z,16.20
2022-10-18T20:46:07.216Z,11.60
2022-10-18T20:48:34.838Z,9.00
2022-10-18T20:51:10.102Z,5.90
2022-10-18T20:53:37.303Z,7.30
2022-10-18T20:56:06.134Z,7.30
2022-10-18T20:58:33.986Z,9.10
2022-10-18T21:01:05.632Z,6.70
2022-10-18T21:03:32.549Z,5.30
2022-10-18T21:06:01.748Z,5.90
2022-10-18T21:08:28.750Z,6.00
2022-10-18T21:10:55.312Z,3.50
2022-10-18T21:13:21.916Z,4.50
2022-10-18T21:15:56.454Z,5.00
2022-10-18T21:18:29.154Z,2.40
2022-10-18T21:21:05.443Z,3.20
2022-10-18T21:23:33.247Z,3.30
2022-10-18T21:25:59.838Z,2.80
2022-10-18T21:28:26.538Z,3.60
2022-10-18T21:30:53.339Z,3.20
2022-10-18T21:33:19.985Z,3.60
2022-10-18T21:35:46.673Z,7.10
2022-10-18T21:38:13.351Z,3.80
2022-10-18T21:40:43.920Z,5.70
2022-10-18T21:43:11.292Z,3.20
2022-10-18T21:45:37.905Z,3.00
2022-10-18T21:48:04.927Z,3.20
2022-10-18T21:50:33.690Z,4.40
2022-10-18T21:53:00.371Z,3.50
2022-10-18T21:55:27.042Z,2.90
2022-10-18T21:57:53.654Z,4.40
2022-10-18T22:00:20.542Z,4.10
2022-10-18T22:02:47.619Z,4.60
2022-10-18T22:05:14.220Z,4.80
2022-10-18T22:07:40.949Z,3.40
2022-10-18T22:10:07.874Z,3.90
2022-10-18T22:12:34.485Z,5.80
2022-10-18T22:15:02.117Z,3.60
2022-10-18T22:17:29.030Z,4.40
2022-10-18T22:19:55.643Z,4.50
2022-10-18T22:22:23.026Z,4.50
2022-10-18T22:24:49.598Z,3.60
2022-10-18T22:27:16.197Z,5.20
2022-10-18T22:29:42.792Z,3.00
2022-10-18T22:32:09.515Z,7.00
2022-10-18T22:34:36.226Z,5.60
2022-10-18T22:37:02.916Z,2.90
2022-10-18T22:39:29.570Z,5.50
2022-10-18T22:41:56.761Z,5.00
2022-10-18T22:44:24.205Z,6.20
2022-10-18T22:46:51.055Z,4.40
2022-10-18T22:49:17.748Z,6.10
2022-10-18T22:51:44.435Z,3.30
2022-10-18T22:54:11.024Z,7.20
2022-10-18T22:56:38.014Z,4.10
2022-10-18T22:59:05.076Z,4.60
2022-10-18T23:01:31.793Z,5.00
2022-10-18T23:03:59.607Z,3.70
2022-10-18T23:06:32.320Z,4.90
2022-10-18T23:09:01.630Z,5.00
2022-10-18T23:11:28.476Z,3.50
2022-10-18T23:13:55.295Z,4.00
2022-10-18T23:16:22.686Z,7.30
2022-10-18T23:18:51.319Z,5.90
2022-10-18T23:21:18.491Z,4.80
2022-10-18T23:23:45.181Z,5.00
2022-10-18T23:26:17.808Z,4.60
2022-10-18T23:28:46.826Z,4.20
2022-10-18T23:31:19.390Z,3.00
2022-10-18T23:33:48.158Z,7.60
2022-10-18T23:36:15.840Z,4.10
2022-10-18T23:38:43.257Z,5.30
2022-10-18T23:41:11.811Z,8.10
2022-10-18T23:43:39.095Z,3.60
2022-10-18T23:46:05.997Z,2.50
2022-10-18T23:48:33.686Z,5.60
2022-10-18T23:51:01.162Z,6.40
2022-10-18T23:53:28.603Z,5.20
2022-10-18T23:55:58.032Z,5.70
2022-10-18T23:58:26.255Z,6.40
